Urb Guarico, Puerto Rico
Current Conditions -  °F | °C
As of 11:56 AM on Saturday 25 Oct 2014 (Local Time) from TJSJ Reporting Station
Broken Clouds Broken Clouds  
Wind Chill: 85°   Ceiling: 5000
Heat Index: 94°   Visibility: 10mi
Dew Point: 76°   Wind: 8mph
Humidity: 74%   Direction: 70°ENE
Pressure: 29.92"   Gusts: NA
Location:  18.4061°N, 66.3012°W
Report Text: TJSJ 251556Z 07007KT 10SM SCT039 BKN050 BKN065 29/24 A2992 RMK AO2 RAB40E56 SLP129 VCSH N SE P0003 T02940244
Loading
Personal Weather Stations






























Interactive Weather Map
Tropical Storm Tracking
New forecast layout! Learn more

10-Day Weather Forecast

Advertisements
Track Severe Weather on mobile